sensor_id;sensor_type;location;lat;lon;timestamp;pressure;altitude;pressure_sealevel;temperature;humidity
68141;BME280;54941;52.220;104.306;2022-08-21T00:00:52;95961.22;;;11.70;84.00
68141;BME280;54941;52.220;104.306;2022-08-21T00:03:37;95957.03;;;11.57;84.48
68141;BME280;54941;52.220;104.306;2022-08-21T00:06:23;95961.06;;;11.53;83.88
68141;BME280;54941;52.220;104.306;2022-08-21T00:09:09;95964.34;;;11.60;83.89
68141;BME280;54941;52.220;104.306;2022-08-21T00:11:54;95963.69;;;11.65;83.80
68141;BME280;54941;52.220;104.306;2022-08-21T00:14:40;95967.38;;;11.99;82.37
68141;BME280;54941;52.220;104.306;2022-08-21T00:17:26;95958.72;;;11.93;81.78
68141;BME280;54941;52.220;104.306;2022-08-21T00:20:13;95959.84;;;11.97;81.20
68141;BME280;54941;52.220;104.306;2022-08-21T00:22:59;95965.56;;;11.88;81.58
68141;BME280;54941;52.220;104.306;2022-08-21T00:25:45;95967.34;;;11.87;82.40
68141;BME280;54941;52.220;104.306;2022-08-21T00:28:30;95967.31;;;11.76;82.53
68141;BME280;54941;52.220;104.306;2022-08-21T00:31:15;95973.34;;;11.69;83.21
68141;BME280;54941;52.220;104.306;2022-08-21T00:34:03;95975.06;;;11.34;84.30
68141;BME280;54941;52.220;104.306;2022-08-21T00:36:48;95971.00;;;11.38;85.37
68141;BME280;54941;52.220;104.306;2022-08-21T00:39:33;95978.47;;;11.28;86.95
68141;BME280;54941;52.220;104.306;2022-08-21T00:42:18;95978.56;;;11.21;87.32
68141;BME280;54941;52.220;104.306;2022-08-21T00:45:04;95975.13;;;11.28;87.71
68141;BME280;54941;52.220;104.306;2022-08-21T00:47:49;95975.50;;;11.13;88.43
68141;BME280;54941;52.220;104.306;2022-08-21T00:50:40;95980.31;;;11.09;89.15
68141;BME280;54941;52.220;104.306;2022-08-21T00:53:27;95981.31;;;11.27;89.27
68141;BME280;54941;52.220;104.306;2022-08-21T00:56:13;95983.13;;;11.38;89.05
68141;BME280;54941;52.220;104.306;2022-08-21T00:58:59;95978.47;;;11.28;88.81
68141;BME280;54941;52.220;104.306;2022-08-21T01:01:45;95981.59;;;11.18;89.10
68141;BME280;54941;52.220;104.306;2022-08-21T01:04:31;95980.72;;;11.24;89.83
68141;BME280;54941;52.220;104.306;2022-08-21T01:07:18;95979.88;;;11.31;90.29
68141;BME280;54941;52.220;104.306;2022-08-21T01:10:04;95981.94;;;11.22;90.08
68141;BME280;54941;52.220;104.306;2022-08-21T01:12:50;95979.63;;;11.32;89.87
68141;BME280;54941;52.220;104.306;2022-08-21T01:15:38;95977.38;;;11.65;89.87
68141;BME280;54941;52.220;104.306;2022-08-21T01:18:23;95981.59;;;11.78;89.02
68141;BME280;54941;52.220;104.306;2022-08-21T01:21:12;95978.59;;;11.93;88.30
68141;BME280;54941;52.220;104.306;2022-08-21T01:23:58;95980.72;;;11.96;89.01
68141;BME280;54941;52.220;104.306;2022-08-21T01:26:43;95981.44;;;12.14;87.83
68141;BME280;54941;52.220;104.306;2022-08-21T01:29:33;95984.56;;;12.51;87.50
68141;BME280;54941;52.220;104.306;2022-08-21T01:32:20;95985.91;;;12.77;85.39
68141;BME280;54941;52.220;104.306;2022-08-21T01:35:06;95985.56;;;12.74;84.49
68141;BME280;54941;52.220;104.306;2022-08-21T01:37:52;95980.84;;;13.34;82.75
68141;BME280;54941;52.220;104.306;2022-08-21T01:40:38;95983.56;;;13.55;78.95
68141;BME280;54941;52.220;104.306;2022-08-21T01:43:23;95988.63;;;14.12;77.40
68141;BME280;54941;52.220;104.306;2022-08-21T01:46:08;95996.31;;;14.95;74.05
68141;BME280;54941;52.220;104.306;2022-08-21T01:48:53;95989.09;;;15.24;72.97
68141;BME280;54941;52.220;104.306;2022-08-21T01:51:37;95993.72;;;14.24;74.42
68141;BME280;54941;52.220;104.306;2022-08-21T01:54:24;95995.69;;;14.88;73.85
68141;BME280;54941;52.220;104.306;2022-08-21T01:57:09;95998.66;;;15.40;72.03
68141;BME280;54941;52.220;104.306;2022-08-21T01:59:54;96005.56;;;14.20;74.37
68141;BME280;54941;52.220;104.306;2022-08-21T02:02:39;96005.88;;;13.45;77.30
68141;BME280;54941;52.220;104.306;2022-08-21T02:05:25;95999.13;;;13.44;77.35
68141;BME280;54941;52.220;104.306;2022-08-21T02:08:09;95998.88;;;13.74;77.95
68141;BME280;54941;52.220;104.306;2022-08-21T02:10:56;96008.34;;;14.30;75.62
68141;BME280;54941;52.220;104.306;2022-08-21T02:13:41;96009.59;;;14.10;76.53
68141;BME280;54941;52.220;104.306;2022-08-21T02:16:26;96011.16;;;14.28;74.43
68141;BME280;54941;52.220;104.306;2022-08-21T02:19:13;96012.25;;;13.99;75.82
68141;BME280;54941;52.220;104.306;2022-08-21T02:21:58;96007.19;;;13.76;76.62
68141;BME280;54941;52.220;104.306;2022-08-21T02:24:43;96007.28;;;13.97;75.33
68141;BME280;54941;52.220;104.306;2022-08-21T02:27:29;96009.63;;;14.44;73.84
68141;BME280;54941;52.220;104.306;2022-08-21T02:30:26;96009.22;;;14.19;73.82
68141;BME280;54941;52.220;104.306;2022-08-21T02:33:11;96009.06;;;14.42;73.08
68141;BME280;54941;52.220;104.306;2022-08-21T02:35:57;96002.50;;;14.56;72.26
68141;BME280;54941;52.220;104.306;2022-08-21T02:38:43;96009.69;;;15.52;69.32
68141;BME280;54941;52.220;104.306;2022-08-21T02:41:28;96005.69;;;15.45;69.09
68141;BME280;54941;52.220;104.306;2022-08-21T02:44:15;96009.41;;;15.49;69.11
68141;BME280;54941;52.220;104.306;2022-08-21T02:47:00;96013.50;;;15.01;69.86
68141;BME280;54941;52.220;104.306;2022-08-21T02:49:45;96009.03;;;14.97;70.38
68141;BME280;54941;52.220;104.306;2022-08-21T02:52:32;96010.09;;;15.23;70.83
68141;BME280;54941;52.220;104.306;2022-08-21T02:55:17;96010.06;;;15.39;68.80
68141;BME280;54941;52.220;104.306;2022-08-21T02:58:06;96012.28;;;17.32;61.78
68141;BME280;54941;52.220;104.306;2022-08-21T03:00:55;96008.56;;;19.30;56.60
68141;BME280;54941;52.220;104.306;2022-08-21T03:03:42;96017.09;;;18.91;55.96
68141;BME280;54941;52.220;104.306;2022-08-21T03:06:27;96014.50;;;18.66;57.56
68141;BME280;54941;52.220;104.306;2022-08-21T03:09:12;96011.03;;;17.55;58.29
68141;BME280;54941;52.220;104.306;2022-08-21T03:11:57;96008.84;;;17.26;60.03
68141;BME280;54941;52.220;104.306;2022-08-21T03:14:42;96013.34;;;17.41;61.59
68141;BME280;54941;52.220;104.306;2022-08-21T03:17:29;96020.28;;;18.13;57.45
68141;BME280;54941;52.220;104.306;2022-08-21T03:20:15;96011.38;;;18.04;57.10
68141;BME280;54941;52.220;104.306;2022-08-21T03:23:01;96017.94;;;18.36;57.21
68141;BME280;54941;52.220;104.306;2022-08-21T03:25:47;96016.81;;;18.98;54.23
68141;BME280;54941;52.220;104.306;2022-08-21T03:28:32;96021.53;;;19.65;53.79
68141;BME280;54941;52.220;104.306;2022-08-21T03:31:17;96017.88;;;18.82;53.69
68141;BME280;54941;52.220;104.306;2022-08-21T03:34:04;96012.06;;;17.53;56.72
68141;BME280;54941;52.220;104.306;2022-08-21T03:36:49;96017.25;;;16.44;61.91
68141;BME280;54941;52.220;104.306;2022-08-21T03:39:34;96014.47;;;16.19;64.06
68141;BME280;54941;52.220;104.306;2022-08-21T03:42:19;96018.13;;;16.23;64.95
68141;BME280;54941;52.220;104.306;2022-08-21T03:45:05;96021.25;;;16.20;64.82
68141;BME280;54941;52.220;104.306;2022-08-21T03:47:57;96017.78;;;15.83;65.19
68141;BME280;54941;52.220;104.306;2022-08-21T03:50:45;96008.88;;;15.74;66.42
68141;BME280;54941;52.220;104.306;2022-08-21T03:53:30;96018.00;;;15.76;65.45
68141;BME280;54941;52.220;104.306;2022-08-21T03:56:15;96011.56;;;16.16;64.30
68141;BME280;54941;52.220;104.306;2022-08-21T03:58:59;96017.25;;;15.54;65.73
68141;BME280;54941;52.220;104.306;2022-08-21T04:01:51;96014.78;;;15.21;66.36
68141;BME280;54941;52.220;104.306;2022-08-21T04:04:37;96013.63;;;15.33;66.32
68141;BME280;54941;52.220;104.306;2022-08-21T04:07:23;96013.38;;;15.56;65.93
68141;BME280;54941;52.220;104.306;2022-08-21T04:10:09;96010.13;;;15.71;65.79
68141;BME280;54941;52.220;104.306;2022-08-21T04:12:57;96015.03;;;15.68;65.99
68141;BME280;54941;52.220;104.306;2022-08-21T04:15:42;96004.13;;;15.66;65.35
68141;BME280;54941;52.220;104.306;2022-08-21T04:18:27;96005.34;;;15.85;64.38
68141;BME280;54941;52.220;104.306;2022-08-21T04:21:12;96007.50;;;15.66;65.71
68141;BME280;54941;52.220;104.306;2022-08-21T04:24:00;96006.91;;;15.37;65.93
68141;BME280;54941;52.220;104.306;2022-08-21T04:26:45;96008.19;;;14.91;66.15
68141;BME280;54941;52.220;104.306;2022-08-21T04:29:31;95996.69;;;15.31;65.58
68141;BME280;54941;52.220;104.306;2022-08-21T04:32:22;95988.84;;;15.47;64.12
68141;BME280;54941;52.220;104.306;2022-08-21T04:35:09;95984.31;;;15.38;63.27
68141;BME280;54941;52.220;104.306;2022-08-21T04:37:54;95975.31;;;15.19;63.58
68141;BME280;54941;52.220;104.306;2022-08-21T04:40:41;95985.97;;;15.00;64.57
68141;BME280;54941;52.220;104.306;2022-08-21T04:43:26;95987.59;;;15.28;64.43
68141;BME280;54941;52.220;104.306;2022-08-21T04:46:11;95988.38;;;15.29;64.13
68141;BME280;54941;52.220;104.306;2022-08-21T04:48:56;95984.34;;;15.91;62.31
68141;BME280;54941;52.220;104.306;2022-08-21T04:51:41;95974.88;;;16.07;60.38
68141;BME280;54941;52.220;104.306;2022-08-21T04:54:26;95976.38;;;16.77;58.74
68141;BME280;54941;52.220;104.306;2022-08-21T04:57:14;95967.78;;;17.53;56.59
68141;BME280;54941;52.220;104.306;2022-08-21T05:00:04;95974.59;;;17.75;56.02
68141;BME280;54941;52.220;104.306;2022-08-21T05:02:50;95969.38;;;17.85;55.02
68141;BME280;54941;52.220;104.306;2022-08-21T05:05:36;95973.41;;;17.15;55.98
68141;BME280;54941;52.220;104.306;2022-08-21T05:08:23;95963.91;;;17.61;56.51
68141;BME280;54941;52.220;104.306;2022-08-21T05:11:10;95965.53;;;17.00;56.37
68141;BME280;54941;52.220;104.306;2022-08-21T05:13:58;95961.94;;;17.16;55.35
68141;BME280;54941;52.220;104.306;2022-08-21T05:16:43;95967.81;;;16.39;57.41
68141;BME280;54941;52.220;104.306;2022-08-21T05:19:27;95967.19;;;16.59;57.71
68141;BME280;54941;52.220;104.306;2022-08-21T05:22:19;95972.72;;;15.99;60.32
68141;BME280;54941;52.220;104.306;2022-08-21T05:25:07;95965.09;;;16.24;62.81
68141;BME280;54941;52.220;104.306;2022-08-21T05:27:52;95970.97;;;16.10;64.51
68141;BME280;54941;52.220;104.306;2022-08-21T05:30:39;95970.13;;;16.04;63.57
68141;BME280;54941;52.220;104.306;2022-08-21T05:33:24;95971.03;;;16.15;63.40
68141;BME280;54941;52.220;104.306;2022-08-21T05:36:09;95966.78;;;16.45;63.35
68141;BME280;54941;52.220;104.306;2022-08-21T05:38:53;95962.94;;;17.05;60.91
68141;BME280;54941;52.220;104.306;2022-08-21T05:41:38;95960.75;;;17.54;58.40
68141;BME280;54941;52.220;104.306;2022-08-21T05:44:23;95963.91;;;18.22;55.45
68141;BME280;54941;52.220;104.306;2022-08-21T05:47:10;95965.50;;;18.18;56.08
68141;BME280;54941;52.220;104.306;2022-08-21T05:49:55;95961.31;;;18.32;52.03
68141;BME280;54941;52.220;104.306;2022-08-21T05:52:40;95958.06;;;18.85;51.48
68141;BME280;54941;52.220;104.306;2022-08-21T05:55:25;95958.97;;;18.35;53.06
68141;BME280;54941;52.220;104.306;2022-08-21T05:58:10;95963.38;;;17.64;55.18
68141;BME280;54941;52.220;104.306;2022-08-21T06:00:56;95965.13;;;17.28;55.24
68141;BME280;54941;52.220;104.306;2022-08-21T06:03:43;95964.03;;;17.19;56.37
68141;BME280;54941;52.220;104.306;2022-08-21T06:06:28;95965.03;;;17.08;57.12
68141;BME280;54941;52.220;104.306;2022-08-21T06:09:13;95969.19;;;17.04;57.83
68141;BME280;54941;52.220;104.306;2022-08-21T06:11:58;95968.94;;;17.06;55.44
68141;BME280;54941;52.220;104.306;2022-08-21T06:14:43;95965.59;;;17.20;53.62
68141;BME280;54941;52.220;104.306;2022-08-21T06:17:28;95965.72;;;16.83;54.42
68141;BME280;54941;52.220;104.306;2022-08-21T06:20:14;95955.34;;;16.46;53.52
68141;BME280;54941;52.220;104.306;2022-08-21T06:23:00;95965.66;;;16.31;54.85
68141;BME280;54941;52.220;104.306;2022-08-21T06:25:45;95962.34;;;16.04;55.52
68141;BME280;54941;52.220;104.306;2022-08-21T06:28:30;95955.47;;;15.88;56.14
68141;BME280;54941;52.220;104.306;2022-08-21T06:31:17;95953.09;;;16.18;56.38
68141;BME280;54941;52.220;104.306;2022-08-21T06:34:02;95947.69;;;16.25;56.65
68141;BME280;54941;52.220;104.306;2022-08-21T06:36:49;95955.47;;;16.62;56.51
68141;BME280;54941;52.220;104.306;2022-08-21T06:39:34;95954.50;;;16.78;55.20
68141;BME280;54941;52.220;104.306;2022-08-21T06:42:19;95954.25;;;16.79;55.36
68141;BME280;54941;52.220;104.306;2022-08-21T06:45:05;95956.44;;;16.55;55.57
68141;BME280;54941;52.220;104.306;2022-08-21T06:47:50;95942.97;;;16.59;55.67
68141;BME280;54941;52.220;104.306;2022-08-21T06:50:36;95949.31;;;16.41;56.27
68141;BME280;54941;52.220;104.306;2022-08-21T06:53:22;95951.84;;;16.68;57.16
68141;BME280;54941;52.220;104.306;2022-08-21T06:56:08;95947.63;;;16.57;56.84
68141;BME280;54941;52.220;104.306;2022-08-21T06:58:53;95951.59;;;16.69;57.22
68141;BME280;54941;52.220;104.306;2022-08-21T07:01:38;95948.50;;;16.72;57.39
68141;BME280;54941;52.220;104.306;2022-08-21T07:04:23;95949.16;;;17.15;57.01
68141;BME280;54941;52.220;104.306;2022-08-21T07:07:08;95941.16;;;17.36;56.79
68141;BME280;54941;52.220;104.306;2022-08-21T07:09:54;95939.88;;;17.44;56.05
68141;BME280;54941;52.220;104.306;2022-08-21T07:12:39;95942.22;;;17.45;52.38
68141;BME280;54941;52.220;104.306;2022-08-21T07:15:24;95939.66;;;17.71;52.61
68141;BME280;54941;52.220;104.306;2022-08-21T07:18:09;95939.41;;;17.97;53.32
68141;BME280;54941;52.220;104.306;2022-08-21T07:20:54;95940.19;;;17.73;52.84
68141;BME280;54941;52.220;104.306;2022-08-21T07:23:43;95941.13;;;17.21;52.41
68141;BME280;54941;52.220;104.306;2022-08-21T07:26:30;95937.94;;;17.04;50.51
68141;BME280;54941;52.220;104.306;2022-08-21T07:29:15;95938.94;;;16.46;51.45
68141;BME280;54941;52.220;104.306;2022-08-21T07:32:00;95936.25;;;16.73;52.28
68141;BME280;54941;52.220;104.306;2022-08-21T07:34:45;95928.31;;;17.04;51.29
68141;BME280;54941;52.220;104.306;2022-08-21T07:37:30;95935.59;;;17.02;51.65
68141;BME280;54941;52.220;104.306;2022-08-21T07:40:15;95938.25;;;17.23;52.04
68141;BME280;54941;52.220;104.306;2022-08-21T07:43:02;95931.19;;;17.08;52.20
68141;BME280;54941;52.220;104.306;2022-08-21T07:45:48;95934.31;;;17.05;53.09
68141;BME280;54941;52.220;104.306;2022-08-21T07:48:33;95932.72;;;17.04;54.97
68141;BME280;54941;52.220;104.306;2022-08-21T07:51:19;95929.97;;;17.46;55.35
68141;BME280;54941;52.220;104.306;2022-08-21T07:54:05;95935.19;;;17.46;56.01
68141;BME280;54941;52.220;104.306;2022-08-21T07:56:50;95940.63;;;17.44;56.88
68141;BME280;54941;52.220;104.306;2022-08-21T07:59:37;95937.53;;;17.52;55.82
68141;BME280;54941;52.220;104.306;2022-08-21T08:02:23;95940.97;;;17.58;56.12
68141;BME280;54941;52.220;104.306;2022-08-21T08:05:10;95940.16;;;17.63;56.02
68141;BME280;54941;52.220;104.306;2022-08-21T08:07:56;95930.22;;;17.34;57.16
68141;BME280;54941;52.220;104.306;2022-08-21T08:10:41;95937.53;;;17.42;56.96
68141;BME280;54941;52.220;104.306;2022-08-21T08:13:26;95926.53;;;17.20;58.07
68141;BME280;54941;52.220;104.306;2022-08-21T08:16:13;95932.31;;;17.32;58.42
68141;BME280;54941;52.220;104.306;2022-08-21T08:18:58;95927.84;;;17.28;58.24
68141;BME280;54941;52.220;104.306;2022-08-21T08:21:43;95929.44;;;17.29;57.93
68141;BME280;54941;52.220;104.306;2022-08-21T08:24:28;95932.28;;;17.37;56.79
68141;BME280;54941;52.220;104.306;2022-08-21T08:27:13;95930.47;;;17.38;57.12
68141;BME280;54941;52.220;104.306;2022-08-21T08:29:58;95933.06;;;17.28;57.50
68141;BME280;54941;52.220;104.306;2022-08-21T08:32:45;95927.84;;;17.23;56.97
68141;BME280;54941;52.220;104.306;2022-08-21T08:35:30;95926.00;;;17.13;57.60
68141;BME280;54941;52.220;104.306;2022-08-21T08:38:15;95926.72;;;17.03;56.66
68141;BME280;54941;52.220;104.306;2022-08-21T08:41:06;95918.13;;;16.98;56.92
68141;BME280;54941;52.220;104.306;2022-08-21T08:43:54;95923.38;;;17.03;56.27
68141;BME280;54941;52.220;104.306;2022-08-21T08:46:41;95921.53;;;17.03;55.19
68141;BME280;54941;52.220;104.306;2022-08-21T08:49:35;95919.97;;;17.08;56.03
68141;BME280;54941;52.220;104.306;2022-08-21T08:52:29;95927.81;;;17.13;55.60
68141;BME280;54941;52.220;104.306;2022-08-21T08:55:17;95925.50;;;17.21;56.12
68141;BME280;54941;52.220;104.306;2022-08-21T08:58:04;95923.69;;;17.32;56.05
68141;BME280;54941;52.220;104.306;2022-08-21T09:00:51;95925.53;;;17.41;55.66
68141;BME280;54941;52.220;104.306;2022-08-21T09:03:37;95920.84;;;17.43;56.19
68141;BME280;54941;52.220;104.306;2022-08-21T09:06:36;95922.41;;;17.29;55.18
68141;BME280;54941;52.220;104.306;2022-08-21T09:09:29;95923.72;;;17.47;55.43
68141;BME280;54941;52.220;104.306;2022-08-21T09:12:19;95933.31;;;17.26;55.33
68141;BME280;54941;52.220;104.306;2022-08-21T09:15:23;95922.59;;;17.08;55.38
68141;BME280;54941;52.220;104.306;2022-08-21T09:18:25;95916.28;;;16.93;55.56
68141;BME280;54941;52.220;104.306;2022-08-21T09:21:19;95930.16;;;17.09;56.09
68141;BME280;54941;52.220;104.306;2022-08-21T09:24:22;95920.81;;;17.23;56.24
68141;BME280;54941;52.220;104.306;2022-08-21T09:27:12;95929.91;;;17.16;56.16
68141;BME280;54941;52.220;104.306;2022-08-21T09:29:57;95929.69;;;17.37;56.14
68141;BME280;54941;52.220;104.306;2022-08-21T09:32:41;95925.66;;;16.89;56.35
68141;BME280;54941;52.220;104.306;2022-08-21T09:35:26;95923.03;;;16.89;56.78
68141;BME280;54941;52.220;104.306;2022-08-21T09:38:24;95928.31;;;16.99;57.15
68141;BME280;54941;52.220;104.306;2022-08-21T09:41:11;95921.06;;;17.17;56.62
68141;BME280;54941;52.220;104.306;2022-08-21T09:43:56;95924.44;;;17.17;55.92
68141;BME280;54941;52.220;104.306;2022-08-21T09:46:50;95919.97;;;17.02;55.94
68141;BME280;54941;52.220;104.306;2022-08-21T09:49:37;95927.78;;;17.08;56.60
68141;BME280;54941;52.220;104.306;2022-08-21T09:52:24;95919.22;;;17.07;57.07
68141;BME280;54941;52.220;104.306;2022-08-21T09:55:16;95914.00;;;17.12;57.04
68141;BME280;54941;52.220;104.306;2022-08-21T09:58:05;95923.97;;;17.40;56.05
68141;BME280;54941;52.220;104.306;2022-08-21T10:00:58;95928.16;;;17.36;55.96
68141;BME280;54941;52.220;104.306;2022-08-21T10:03:43;95925.72;;;17.15;56.37
68141;BME280;54941;52.220;104.306;2022-08-21T10:06:28;95928.31;;;17.04;56.66
68141;BME280;54941;52.220;104.306;2022-08-21T10:09:15;95926.72;;;16.98;56.84
68141;BME280;54941;52.220;104.306;2022-08-21T10:12:10;95928.78;;;16.96;57.53
68141;BME280;54941;52.220;104.306;2022-08-21T10:15:02;95927.22;;;16.90;57.82
68141;BME280;54941;52.220;104.306;2022-08-21T10:17:57;95923.84;;;17.00;57.61
68141;BME280;54941;52.220;104.306;2022-08-21T10:20:51;95928.03;;;16.96;57.32
68141;BME280;54941;52.220;104.306;2022-08-21T10:23:48;95931.41;;;16.91;57.00
68141;BME280;54941;52.220;104.306;2022-08-21T10:26:48;95928.00;;;16.91;57.78
68141;BME280;54941;52.220;104.306;2022-08-21T10:29:47;95931.06;;;16.73;58.17
68141;BME280;54941;52.220;104.306;2022-08-21T10:32:50;95929.19;;;16.63;57.63
68141;BME280;54941;52.220;104.306;2022-08-21T10:35:42;95932.09;;;16.72;57.82
68141;BME280;54941;52.220;104.306;2022-08-21T10:38:54;95934.22;;;16.80;58.10
68141;BME280;54941;52.220;104.306;2022-08-21T10:41:51;95940.44;;;16.74;62.27
68141;BME280;54941;52.220;104.306;2022-08-21T10:44:51;95940.66;;;16.62;61.71
68141;BME280;54941;52.220;104.306;2022-08-21T10:47:47;95941.72;;;16.66;62.22
68141;BME280;54941;52.220;104.306;2022-08-21T10:50:39;95945.75;;;16.52;64.44
68141;BME280;54941;52.220;104.306;2022-08-21T10:53:45;95937.38;;;16.40;63.96
68141;BME280;54941;52.220;104.306;2022-08-21T10:56:34;95934.69;;;16.30;68.79
68141;BME280;54941;52.220;104.306;2022-08-21T10:59:26;95937.50;;;16.18;70.70
68141;BME280;54941;52.220;104.306;2022-08-21T11:02:25;95941.25;;;16.00;73.38
68141;BME280;54941;52.220;104.306;2022-08-21T11:05:17;95945.31;;;15.59;77.47
68141;BME280;54941;52.220;104.306;2022-08-21T11:08:08;95953.81;;;15.50;76.62
68141;BME280;54941;52.220;104.306;2022-08-21T11:10:59;95950.84;;;15.41;76.82
68141;BME280;54941;52.220;104.306;2022-08-21T11:13:48;95952.84;;;15.34;77.82
68141;BME280;54941;52.220;104.306;2022-08-21T11:16:39;95960.31;;;15.26;79.39
68141;BME280;54941;52.220;104.306;2022-08-21T11:19:32;95963.09;;;14.97;80.56
68141;BME280;54941;52.220;104.306;2022-08-21T11:22:21;95962.75;;;14.89;80.30
68141;BME280;54941;52.220;104.306;2022-08-21T11:25:12;95967.38;;;14.87;81.42
68141;BME280;54941;52.220;104.306;2022-08-21T11:28:01;95966.59;;;14.65;83.05
68141;BME280;54941;52.220;104.306;2022-08-21T11:30:55;95985.94;;;14.57;85.87
68141;BME280;54941;52.220;104.306;2022-08-21T11:33:58;95989.31;;;14.57;79.61
68141;BME280;54941;52.220;104.306;2022-08-21T11:36:48;95999.88;;;14.34;80.84
68141;BME280;54941;52.220;104.306;2022-08-21T11:39:50;95994.66;;;14.01;80.54
68141;BME280;54941;52.220;104.306;2022-08-21T11:42:45;95987.44;;;14.03;83.29
68141;BME280;54941;52.220;104.306;2022-08-21T11:45:39;95993.81;;;13.95;87.70
68141;BME280;54941;52.220;104.306;2022-08-21T11:48:36;95995.41;;;13.68;88.98
68141;BME280;54941;52.220;104.306;2022-08-21T11:51:31;96004.03;;;13.57;90.99
68141;BME280;54941;52.220;104.306;2022-08-21T11:54:24;95995.22;;;13.41;92.61
68141;BME280;54941;52.220;104.306;2022-08-21T11:57:15;95998.06;;;13.28;91.94
68141;BME280;54941;52.220;104.306;2022-08-21T12:00:06;95994.13;;;13.26;91.05
68141;BME280;54941;52.220;104.306;2022-08-21T12:02:54;96000.00;;;13.21;92.32
68141;BME280;54941;52.220;104.306;2022-08-21T12:05:42;96000.66;;;13.05;92.72
68141;BME280;54941;52.220;104.306;2022-08-21T12:08:30;96006.56;;;12.89;94.32
68141;BME280;54941;52.220;104.306;2022-08-21T12:11:24;96001.75;;;12.81;93.95
68141;BME280;54941;52.220;104.306;2022-08-21T12:14:15;96012.09;;;12.81;94.07
68141;BME280;54941;52.220;104.306;2022-08-21T12:17:05;96014.47;;;12.71;94.54
68141;BME280;54941;52.220;104.306;2022-08-21T12:19:57;96013.00;;;12.63;93.84
68141;BME280;54941;52.220;104.306;2022-08-21T12:22:50;96020.97;;;12.61;93.57
68141;BME280;54941;52.220;104.306;2022-08-21T12:25:37;96025.50;;;12.66;91.69
68141;BME280;54941;52.220;104.306;2022-08-21T12:28:23;96032.44;;;12.65;90.26
68141;BME280;54941;52.220;104.306;2022-08-21T12:31:20;96033.13;;;12.73;89.61
68141;BME280;54941;52.220;104.306;2022-08-21T12:34:10;96032.31;;;12.60;89.90
68141;BME280;54941;52.220;104.306;2022-08-21T12:36:58;96024.94;;;12.52;89.83
68141;BME280;54941;52.220;104.306;2022-08-21T12:39:47;96035.38;;;12.46;90.39
68141;BME280;54941;52.220;104.306;2022-08-21T12:42:37;96043.22;;;12.39;90.35
68141;BME280;54941;52.220;104.306;2022-08-21T12:45:28;96042.91;;;12.36;89.28
68141;BME280;54941;52.220;104.306;2022-08-21T12:48:20;96046.28;;;12.36;89.19
68141;BME280;54941;52.220;104.306;2022-08-21T12:51:09;96049.41;;;12.38;89.10
68141;BME280;54941;52.220;104.306;2022-08-21T12:53:56;96049.19;;;12.40;90.51
68141;BME280;54941;52.220;104.306;2022-08-21T12:56:42;96053.69;;;12.44;91.05
68141;BME280;54941;52.220;104.306;2022-08-21T12:59:28;96057.28;;;12.43;90.37
68141;BME280;54941;52.220;104.306;2022-08-21T13:02:17;96058.06;;;12.44;89.05
68141;BME280;54941;52.220;104.306;2022-08-21T13:05:06;96056.75;;;12.41;89.07
68141;BME280;54941;52.220;104.306;2022-08-21T13:07:52;96057.63;;;12.47;90.64
68141;BME280;54941;52.220;104.306;2022-08-21T13:10:40;96067.97;;;12.47;89.72
68141;BME280;54941;52.220;104.306;2022-08-21T13:13:26;96067.75;;;12.48;90.61
68141;BME280;54941;52.220;104.306;2022-08-21T13:16:12;96077.84;;;12.50;90.30
68141;BME280;54941;52.220;104.306;2022-08-21T13:19:01;96075.16;;;12.56;90.29
68141;BME280;54941;52.220;104.306;2022-08-21T13:21:48;96081.47;;;12.72;90.27
68141;BME280;54941;52.220;104.306;2022-08-21T13:24:35;96079.44;;;12.62;90.23
68141;BME280;54941;52.220;104.306;2022-08-21T13:27:23;96084.50;;;12.57;91.58
68141;BME280;54941;52.220;104.306;2022-08-21T13:30:11;96085.50;;;12.56;89.49
68141;BME280;54941;52.220;104.306;2022-08-21T13:32:58;96093.72;;;12.65;90.23
68141;BME280;54941;52.220;104.306;2022-08-21T13:35:57;96086.19;;;12.63;89.04
68141;BME280;54941;52.220;104.306;2022-08-21T13:38:46;96092.84;;;12.59;89.00
68141;BME280;54941;52.220;104.306;2022-08-21T13:41:34;96085.75;;;12.66;89.82
68141;BME280;54941;52.220;104.306;2022-08-21T13:44:21;96092.38;;;12.74;89.20
68141;BME280;54941;52.220;104.306;2022-08-21T13:47:06;96089.91;;;12.79;88.22
68141;BME280;54941;52.220;104.306;2022-08-21T13:49:54;96092.06;;;12.82;87.84
68141;BME280;54941;52.220;104.306;2022-08-21T13:52:47;96088.69;;;12.82;89.97
68141;BME280;54941;52.220;104.306;2022-08-21T13:55:40;96096.44;;;12.82;89.30
68141;BME280;54941;52.220;104.306;2022-08-21T13:58:26;96089.47;;;12.82;87.02
68141;BME280;54941;52.220;104.306;2022-08-21T14:01:19;96090.22;;;12.83;88.28
68141;BME280;54941;52.220;104.306;2022-08-21T14:04:14;96094.84;;;12.81;87.41
68141;BME280;54941;52.220;104.306;2022-08-21T14:07:01;96089.47;;;12.82;88.05
68141;BME280;54941;52.220;104.306;2022-08-21T14:09:47;96095.66;;;12.81;88.87
68141;BME280;54941;52.220;104.306;2022-08-21T14:12:40;96101.16;;;12.73;89.10
68141;BME280;54941;52.220;104.306;2022-08-21T14:15:28;96102.28;;;12.77;87.80
68141;BME280;54941;52.220;104.306;2022-08-21T14:18:16;96105.66;;;12.89;89.38
68141;BME280;54941;52.220;104.306;2022-08-21T14:21:05;96097.56;;;12.86;89.00
68141;BME280;54941;52.220;104.306;2022-08-21T14:24:02;96105.88;;;12.76;88.91
68141;BME280;54941;52.220;104.306;2022-08-21T14:26:50;96102.41;;;12.71;89.86